createdAt,value
2018-04-30T00:00:30.850Z,1.40
2018-04-30T00:02:57.263Z,2.30
2018-04-30T00:05:23.446Z,1.63
2018-04-30T00:07:50.063Z,1.50
2018-04-30T00:10:16.213Z,1.43
2018-04-30T00:12:42.684Z,1.50
2018-04-30T00:15:08.861Z,1.30
2018-04-30T00:17:35.043Z,1.40
2018-04-30T00:20:01.206Z,1.47
2018-04-30T00:22:27.691Z,1.30
2018-04-30T00:24:53.837Z,1.60
2018-04-30T00:27:19.972Z,1.60
2018-04-30T00:29:46.149Z,1.40
2018-04-30T00:32:12.298Z,1.40
2018-04-30T00:34:38.504Z,1.63
2018-04-30T00:37:04.679Z,1.60
2018-04-30T00:39:30.821Z,1.50
2018-04-30T00:41:57.018Z,1.40
2018-04-30T00:44:23.153Z,1.53
2018-04-30T00:46:49.288Z,1.40
2018-04-30T00:49:15.582Z,1.40
2018-04-30T00:51:41.730Z,1.57
2018-04-30T00:54:07.884Z,1.60
2018-04-30T00:56:34.485Z,1.20
2018-04-30T00:59:00.633Z,1.47
2018-04-30T01:01:26.777Z,5.33
2018-04-30T01:03:52.953Z,1.43
2018-04-30T01:06:19.102Z,1.50
2018-04-30T01:08:45.265Z,1.73
2018-04-30T01:11:11.409Z,1.60
2018-04-30T01:13:37.917Z,1.50
2018-04-30T01:16:04.089Z,1.60
2018-04-30T01:18:30.228Z,2.07
2018-04-30T01:20:56.663Z,1.47
2018-04-30T01:23:23.098Z,1.30
2018-04-30T01:25:49.285Z,1.40
2018-04-30T01:28:15.760Z,1.30
2018-04-30T01:30:41.930Z,1.50
2018-04-30T01:33:08.077Z,1.37
2018-04-30T01:35:35.238Z,1.67
2018-04-30T01:38:01.378Z,1.73
2018-04-30T01:40:27.525Z,1.50
2018-04-30T01:42:53.693Z,1.30
2018-04-30T01:45:19.850Z,2.07
2018-04-30T01:47:46.053Z,1.50
2018-04-30T01:50:12.224Z,1.47
2018-04-30T01:52:38.651Z,1.33
2018-04-30T01:55:04.845Z,2.40
2018-04-30T01:57:30.984Z,1.43
2018-04-30T01:59:57.173Z,1.50
2018-04-30T02:02:23.406Z,1.30
2018-04-30T02:04:49.555Z,1.90
2018-04-30T02:07:15.738Z,1.50
2018-04-30T02:09:41.876Z,1.23
2018-04-30T02:12:08.045Z,1.40
2018-04-30T02:14:34.218Z,1.70
2018-04-30T02:17:00.737Z,1.50
2018-04-30T02:19:27.161Z,1.50
2018-04-30T02:21:53.333Z,1.40
2018-04-30T02:24:19.590Z,1.40
2018-04-30T02:26:45.737Z,1.53
2018-04-30T02:29:12.414Z,1.20
2018-04-30T02:31:38.562Z,1.53
2018-04-30T02:34:04.710Z,1.30
2018-04-30T02:36:31.003Z,1.50
2018-04-30T02:38:57.149Z,1.50
2018-04-30T02:41:23.294Z,1.30
2018-04-30T02:43:49.472Z,1.30
2018-04-30T02:46:15.614Z,1.40
2018-04-30T02:48:41.829Z,1.40
2018-04-30T02:51:08.050Z,1.60
2018-04-30T02:53:34.193Z,1.70
2018-04-30T02:56:00.373Z,1.50
2018-04-30T02:58:26.998Z,1.60
2018-04-30T03:00:53.147Z,1.40
2018-04-30T03:03:19.281Z,1.60
2018-04-30T03:05:45.474Z,1.43
2018-04-30T03:08:11.946Z,1.33
2018-04-30T03:10:38.371Z,1.47
2018-04-30T03:13:04.551Z,1.30
2018-04-30T03:15:30.702Z,1.37
2018-04-30T03:17:57.027Z,1.57
2018-04-30T03:20:23.483Z,1.33
2018-04-30T03:22:49.629Z,1.60
2018-04-30T03:25:15.857Z,1.30
2018-04-30T03:27:42.003Z,1.60
2018-04-30T03:30:08.144Z,1.20
2018-04-30T03:32:34.343Z,1.60
2018-04-30T03:35:00.483Z,1.30
2018-04-30T03:37:26.633Z,1.30
2018-04-30T03:39:52.818Z,1.30
2018-04-30T03:42:19.053Z,1.50
2018-04-30T03:44:45.645Z,1.50
2018-04-30T03:47:11.778Z,1.20
2018-04-30T03:49:37.978Z,1.43
2018-04-30T03:52:04.159Z,1.40
2018-04-30T03:54:30.581Z,1.40
2018-04-30T03:56:56.864Z,2.37
2018-04-30T03:59:23.009Z,1.30
2018-04-30T04:02:02.324Z,1.50
2018-04-30T04:04:40.682Z,1.30
2018-04-30T04:07:06.849Z,1.77
2018-04-30T04:09:32.994Z,1.50
2018-04-30T04:11:59.175Z,1.47
2018-04-30T04:14:25.693Z,1.83
2018-04-30T04:16:51.839Z,2.47
2018-04-30T04:19:17.977Z,1.60
2018-04-30T04:21:44.479Z,2.20
2018-04-30T04:24:10.672Z,1.50
2018-04-30T04:26:36.870Z,1.20
2018-04-30T04:29:03.010Z,1.30
2018-04-30T04:31:29.165Z,1.27
2018-04-30T04:33:55.353Z,1.53
2018-04-30T04:36:21.507Z,1.50
2018-04-30T04:38:48.111Z,1.50
2018-04-30T04:41:14.311Z,1.50
2018-04-30T04:43:40.737Z,1.40
2018-04-30T04:46:06.945Z,1.40
2018-04-30T04:48:33.401Z,1.40
2018-04-30T04:50:59.538Z,1.40
2018-04-30T04:53:25.751Z,1.60
2018-04-30T04:55:52.391Z,1.50
2018-04-30T04:58:18.542Z,1.53
2018-04-30T05:00:44.949Z,1.30
2018-04-30T05:03:11.386Z,1.67
2018-04-30T05:05:37.532Z,1.27
2018-04-30T05:08:03.748Z,1.47
2018-04-30T05:10:30.171Z,1.40
2018-04-30T05:12:56.361Z,1.20
2018-04-30T05:15:22.525Z,1.60
2018-04-30T05:17:48.994Z,1.60
2018-04-30T05:20:15.141Z,1.40
2018-04-30T05:22:41.290Z,1.60
2018-04-30T05:25:07.499Z,1.50
2018-04-30T05:27:33.641Z,2.10
2018-04-30T05:29:59.813Z,1.37
2018-04-30T05:32:26.220Z,1.23
2018-04-30T05:34:52.501Z,1.53
2018-04-30T05:37:18.700Z,1.57
2018-04-30T05:39:44.894Z,1.50
2018-04-30T05:42:11.194Z,1.67
2018-04-30T05:44:37.378Z,1.37
2018-04-30T05:47:03.561Z,1.40
2018-04-30T05:49:29.847Z,1.70
2018-04-30T05:51:55.985Z,1.40
2018-04-30T05:54:22.128Z,1.70
2018-04-30T05:56:48.280Z,2.00
2018-04-30T05:59:14.458Z,1.30
2018-04-30T06:01:40.610Z,1.50
2018-04-30T06:04:07.122Z,1.37
2018-04-30T06:06:33.269Z,1.40
2018-04-30T06:08:59.404Z,1.33
2018-04-30T06:11:25.690Z,1.40
2018-04-30T06:13:51.842Z,1.47
2018-04-30T06:16:17.980Z,1.60
2018-04-30T06:18:44.253Z,1.70
2018-04-30T06:21:10.388Z,1.60
2018-04-30T06:23:36.549Z,1.87
2018-04-30T06:26:02.764Z,1.47
2018-04-30T06:28:28.926Z,1.33
2018-04-30T06:30:55.110Z,1.67
2018-04-30T06:33:21.276Z,1.40
2018-04-30T06:35:48.194Z,1.57
2018-04-30T06:38:14.325Z,1.23
2018-04-30T06:40:40.486Z,1.33
2018-04-30T06:43:06.658Z,2.40
2018-04-30T06:45:32.932Z,1.60
2018-04-30T06:47:59.078Z,1.53
2018-04-30T06:50:25.217Z,1.47
2018-04-30T06:52:51.439Z,1.57
2018-04-30T06:55:17.588Z,1.40
2018-04-30T06:57:43.749Z,1.50
2018-04-30T07:00:10.228Z,1.67
2018-04-30T07:02:36.374Z,1.37
2018-04-30T07:05:02.746Z,1.20
2018-04-30T07:07:29.127Z,1.40
2018-04-30T07:09:55.272Z,1.40
2018-04-30T07:12:21.558Z,1.40
2018-04-30T07:14:47.709Z,1.40
2018-04-30T07:17:13.852Z,1.40
2018-04-30T07:19:40.365Z,1.43
2018-04-30T07:22:06.639Z,1.40
2018-04-30T07:24:32.793Z,1.40
2018-04-30T07:26:58.961Z,1.50
2018-04-30T07:29:25.233Z,1.47
2018-04-30T07:31:51.386Z,1.20
2018-04-30T07:34:17.530Z,1.47
2018-04-30T07:36:43.805Z,1.20
2018-04-30T07:39:10.007Z,1.20
2018-04-30T07:41:36.417Z,1.23
2018-04-30T07:44:02.586Z,1.30
2018-04-30T07:46:28.733Z,1.30
2018-04-30T07:48:54.919Z,1.40
2018-04-30T07:51:21.065Z,1.47
2018-04-30T07:53:47.560Z,1.27
2018-04-30T07:56:13.723Z,1.60
2018-04-30T07:58:39.878Z,1.37
2018-04-30T08:01:06.165Z,1.30
2018-04-30T08:03:32.308Z,1.30
2018-04-30T08:05:58.456Z,1.40
2018-04-30T08:08:24.644Z,1.50
2018-04-30T08:10:50.812Z,1.40
2018-04-30T08:13:17.019Z,1.30
2018-04-30T08:15:43.164Z,1.40
2018-04-30T08:18:09.307Z,1.30
2018-04-30T08:20:35.495Z,1.50
2018-04-30T08:23:01.890Z,1.97
2018-04-30T08:25:28.189Z,1.47
2018-04-30T08:27:54.439Z,1.40
2018-04-30T08:30:20.591Z,1.50
2018-04-30T08:32:46.776Z,1.43
2018-04-30T08:35:12.924Z,1.20
2018-04-30T08:37:39.076Z,1.20
2018-04-30T08:40:05.257Z,1.30
2018-04-30T08:42:31.405Z,2.40
2018-04-30T08:44:57.705Z,1.97
2018-04-30T08:47:23.809Z,1.63
2018-04-30T08:49:49.952Z,1.43
2018-04-30T08:52:16.229Z,1.23
2018-04-30T08:54:42.375Z,1.30
2018-04-30T08:57:08.530Z,1.50
2018-04-30T08:59:34.821Z,1.40
2018-04-30T09:02:00.965Z,1.20
2018-04-30T09:04:27.117Z,1.43
2018-04-30T09:06:53.301Z,1.43
2018-04-30T09:09:19.713Z,1.73
2018-04-30T09:11:46.317Z,1.67
2018-04-30T09:14:12.466Z,1.50
2018-04-30T09:16:38.634Z,1.47
2018-04-30T09:19:04.815Z,1.43
2018-04-30T09:21:31.262Z,1.33
2018-04-30T09:23:57.454Z,1.40
2018-04-30T09:26:23.655Z,1.43
2018-04-30T09:28:49.814Z,1.30
2018-04-30T09:31:15.964Z,1.30
2018-04-30T09:33:42.141Z,1.40
2018-04-30T09:36:08.629Z,1.40
2018-04-30T09:38:34.818Z,1.30
2018-04-30T09:41:01.001Z,1.40
2018-04-30T09:43:27.235Z,1.70
2018-04-30T09:45:53.469Z,1.77
2018-04-30T09:48:19.620Z,1.13
2018-04-30T09:50:45.776Z,1.30
2018-04-30T09:53:12.469Z,1.50
2018-04-30T09:55:38.632Z,1.33
2018-04-30T09:58:04.797Z,1.60
2018-04-30T10:00:31.321Z,1.40
2018-04-30T10:02:57.623Z,1.23
2018-04-30T10:05:23.777Z,1.40
2018-04-30T10:07:49.939Z,1.40
2018-04-30T10:10:16.126Z,1.70
2018-04-30T10:12:42.300Z,1.40
2018-04-30T10:15:08.898Z,1.47
2018-04-30T10:17:35.090Z,1.30
2018-04-30T10:20:01.229Z,1.30
2018-04-30T10:22:27.409Z,1.50
2018-04-30T10:24:53.565Z,2.00
2018-04-30T10:27:19.873Z,2.23
2018-04-30T10:29:46.044Z,2.13
2018-04-30T10:32:12.204Z,2.30
2018-04-30T10:34:38.727Z,4.83
2018-04-30T10:37:04.881Z,3.30
2018-04-30T10:39:38.000Z,4.33
2018-04-30T10:42:04.145Z,5.40
2018-04-30T10:44:30.292Z,5.53
2018-04-30T10:46:56.826Z,6.73
2018-04-30T10:49:22.972Z,5.60
2018-04-30T10:51:49.166Z,7.53
2018-04-30T10:54:15.372Z,5.17
2018-04-30T10:56:41.511Z,6.67
2018-04-30T10:59:07.711Z,6.90
2018-04-30T11:01:34.196Z,8.93
2018-04-30T11:04:00.340Z,7.73
2018-04-30T11:06:26.859Z,9.13
2018-04-30T11:08:53.284Z,8.50
2018-04-30T11:11:26.517Z,8.00
2018-04-30T11:13:52.669Z,9.00
2018-04-30T11:16:18.957Z,7.30
2018-04-30T11:18:45.368Z,6.77
2018-04-30T11:21:11.523Z,7.83
2018-04-30T11:23:37.699Z,6.37
2018-04-30T11:26:03.876Z,8.90
2018-04-30T11:28:30.394Z,11.13
2018-04-30T11:30:56.563Z,9.77
2018-04-30T11:33:22.709Z,6.47
2018-04-30T11:35:49.221Z,8.63
2018-04-30T11:38:15.393Z,6.90
2018-04-30T11:40:41.553Z,6.50
2018-04-30T11:43:07.763Z,7.13
2018-04-30T11:45:34.086Z,7.80
2018-04-30T11:48:00.241Z,6.73
2018-04-30T11:50:26.408Z,6.30
2018-04-30T11:52:52.593Z,6.67
2018-04-30T11:55:18.757Z,7.50
2018-04-30T11:57:44.989Z,5.37
2018-04-30T12:00:11.694Z,6.97
2018-04-30T12:02:37.853Z,5.27
2018-04-30T12:05:04.101Z,7.93
2018-04-30T12:07:30.590Z,6.00
2018-04-30T12:09:56.752Z,9.27
2018-04-30T12:12:22.920Z,7.60
2018-04-30T12:14:49.229Z,5.57
2018-04-30T12:17:15.665Z,7.83
2018-04-30T12:19:41.911Z,6.40
2018-04-30T12:22:08.100Z,8.13
2018-04-30T12:24:34.553Z,5.97
2018-04-30T12:27:00.826Z,6.70
2018-04-30T12:29:27.470Z,9.43
2018-04-30T12:31:53.659Z,6.30
2018-04-30T12:34:19.831Z,7.33
2018-04-30T12:36:46.051Z,6.60
2018-04-30T12:39:12.228Z,5.90
2018-04-30T12:41:38.409Z,4.80
2018-04-30T12:44:04.710Z,5.47
2018-04-30T12:46:30.866Z,6.40
2018-04-30T12:48:57.034Z,5.23
2018-04-30T12:51:23.254Z,5.17
2018-04-30T12:53:49.427Z,4.70
2018-04-30T12:56:15.596Z,6.57
2018-04-30T12:58:41.793Z,5.30
2018-04-30T13:01:07.958Z,4.23
2018-04-30T13:03:34.514Z,5.57
2018-04-30T13:06:00.672Z,4.43
2018-04-30T13:08:26.825Z,4.33
2018-04-30T13:10:53.405Z,4.57
2018-04-30T13:13:19.577Z,6.30
2018-04-30T13:15:46.062Z,4.83
2018-04-30T13:18:12.378Z,8.17
2018-04-30T13:20:38.541Z,4.23
2018-04-30T13:23:04.689Z,5.17
2018-04-30T13:25:30.865Z,4.37
2018-04-30T13:27:57.245Z,4.53
2018-04-30T13:30:23.752Z,6.30
2018-04-30T13:32:49.892Z,3.83
2018-04-30T13:35:16.292Z,4.40
2018-04-30T13:37:42.467Z,6.00
2018-04-30T13:40:08.624Z,4.10
2018-04-30T13:42:35.080Z,4.00
2018-04-30T13:45:01.230Z,3.73
2018-04-30T13:47:27.444Z,3.90
2018-04-30T13:49:53.595Z,4.00
2018-04-30T13:52:19.779Z,4.80
2018-04-30T13:54:46.068Z,4.10
2018-04-30T13:57:12.213Z,3.97
2018-04-30T13:59:38.354Z,3.37
2018-04-30T14:02:04.642Z,4.87
2018-04-30T14:04:30.796Z,3.70
2018-04-30T14:06:56.939Z,4.10
2018-04-30T14:09:23.420Z,4.83
2018-04-30T14:11:49.578Z,3.70
2018-04-30T14:14:15.748Z,2.53
2018-04-30T14:16:41.912Z,3.43
2018-04-30T14:19:08.092Z,6.00
2018-04-30T14:21:34.312Z,3.17
2018-04-30T14:24:00.453Z,4.10
2018-04-30T14:26:26.625Z,8.13
2018-04-30T14:28:52.801Z,4.30
2018-04-30T14:31:18.996Z,3.50
2018-04-30T14:33:45.465Z,3.67
2018-04-30T14:36:11.627Z,2.93
2018-04-30T14:38:38.159Z,3.17
2018-04-30T14:41:04.313Z,3.50
2018-04-30T14:43:30.460Z,3.93
2018-04-30T14:45:56.641Z,3.30
2018-04-30T14:48:22.798Z,3.10
2018-04-30T14:50:49.267Z,3.33
2018-04-30T14:53:15.407Z,2.57
2018-04-30T14:55:41.602Z,3.57
2018-04-30T14:58:08.064Z,2.87
2018-04-30T15:00:34.205Z,3.87
2018-04-30T15:03:00.393Z,3.30
2018-04-30T15:05:26.534Z,3.17
2018-04-30T15:07:52.683Z,3.20
2018-04-30T15:10:18.864Z,2.60
2018-04-30T15:12:44.994Z,2.50
2018-04-30T15:15:11.128Z,2.30
2018-04-30T15:17:37.325Z,5.37
2018-04-30T15:20:03.498Z,2.50
2018-04-30T15:22:29.639Z,3.00
2018-04-30T15:24:55.846Z,2.70
2018-04-30T15:27:22.278Z,3.00
2018-04-30T15:29:48.421Z,2.33
2018-04-30T15:32:15.046Z,3.33
2018-04-30T15:34:41.212Z,3.40
2018-04-30T15:37:07.346Z,3.40
2018-04-30T15:39:33.510Z,2.50
2018-04-30T15:41:59.743Z,2.50
2018-04-30T15:44:25.921Z,3.00
2018-04-30T15:46:52.098Z,2.60
2018-04-30T15:49:18.301Z,2.63
2018-04-30T15:51:44.534Z,3.33
2018-04-30T15:54:10.703Z,3.60
2018-04-30T15:56:36.978Z,2.30
2018-04-30T15:59:03.449Z,2.60
2018-04-30T16:01:29.693Z,2.80
2018-04-30T16:03:55.833Z,2.30
2018-04-30T16:06:21.979Z,3.63
2018-04-30T16:08:48.465Z,2.10
2018-04-30T16:11:14.742Z,2.20
2018-04-30T16:13:40.921Z,4.27
2018-04-30T16:16:07.066Z,2.40
2018-04-30T16:18:33.272Z,2.53
2018-04-30T16:20:59.430Z,3.40
2018-04-30T16:23:25.598Z,2.43
2018-04-30T16:25:51.775Z,2.20
2018-04-30T16:28:17.911Z,2.33
2018-04-30T16:30:44.081Z,2.30
2018-04-30T16:33:10.541Z,2.40
2018-04-30T16:35:36.723Z,3.33
2018-04-30T16:38:02.861Z,3.60
2018-04-30T16:40:29.022Z,2.20
2018-04-30T16:42:55.168Z,3.47
2018-04-30T16:45:21.346Z,3.27
2018-04-30T16:47:47.476Z,2.50
2018-04-30T16:50:14.085Z,2.10
2018-04-30T16:52:40.254Z,2.13
2018-04-30T16:55:06.552Z,2.63
2018-04-30T16:57:32.730Z,2.10
2018-04-30T16:59:59.025Z,1.90
2018-04-30T17:02:25.185Z,2.27
2018-04-30T17:04:51.336Z,2.07
2018-04-30T17:07:17.515Z,2.63
2018-04-30T17:09:43.657Z,2.33
2018-04-30T17:12:09.842Z,2.83
2018-04-30T17:14:36.062Z,2.03
2018-04-30T17:17:02.209Z,2.10
2018-04-30T17:19:28.353Z,2.00
2018-04-30T17:21:54.530Z,2.67
2018-04-30T17:24:20.937Z,2.20
2018-04-30T17:26:47.104Z,2.33
2018-04-30T17:29:13.268Z,2.47
2018-04-30T17:31:39.590Z,1.93
2018-04-30T17:34:05.949Z,2.03
2018-04-30T17:36:32.208Z,1.90
2018-04-30T17:38:58.314Z,2.77
2018-04-30T17:41:24.828Z,2.27
2018-04-30T17:43:51.316Z,5.70
2018-04-30T17:46:17.521Z,1.70
2018-04-30T17:48:43.660Z,2.53
2018-04-30T17:51:09.830Z,2.07
2018-04-30T17:53:36.532Z,1.90
2018-04-30T17:56:02.704Z,7.07
2018-04-30T17:58:28.861Z,2.93
2018-04-30T18:00:55.032Z,2.33
2018-04-30T18:03:21.177Z,1.87
2018-04-30T18:05:47.384Z,2.23
2018-04-30T18:08:13.557Z,2.07
2018-04-30T18:10:39.706Z,2.03
2018-04-30T18:13:05.896Z,2.00
2018-04-30T18:15:32.272Z,1.60
2018-04-30T18:17:58.480Z,1.97
2018-04-30T18:20:24.625Z,2.80
2018-04-30T18:22:50.777Z,1.80
2018-04-30T18:25:16.954Z,1.93
2018-04-30T18:27:43.089Z,1.80
2018-04-30T18:30:09.259Z,1.60
2018-04-30T18:32:35.487Z,2.80
2018-04-30T18:35:01.642Z,1.83
2018-04-30T18:37:27.792Z,1.73
2018-04-30T18:39:53.983Z,2.43
2018-04-30T18:42:20.134Z,2.60
2018-04-30T18:44:46.362Z,2.17
2018-04-30T18:47:12.530Z,1.80
2018-04-30T18:49:38.684Z,1.70
2018-04-30T18:52:04.889Z,1.70
2018-04-30T18:54:31.065Z,1.73
2018-04-30T18:56:57.213Z,2.90
2018-04-30T18:59:23.389Z,2.77
2018-04-30T19:01:49.553Z,1.53
2018-04-30T19:04:16.209Z,1.90
2018-04-30T19:06:42.369Z,1.87
2018-04-30T19:09:08.524Z,3.63
2018-04-30T19:11:34.718Z,1.90
2018-04-30T19:14:01.194Z,1.50
2018-04-30T19:16:27.349Z,1.90
2018-04-30T19:18:53.507Z,1.70
2018-04-30T19:21:19.750Z,1.73
2018-04-30T19:23:45.903Z,1.70
2018-04-30T19:26:12.066Z,1.70
2018-04-30T19:28:38.257Z,1.60
2018-04-30T19:31:04.447Z,1.60
2018-04-30T19:33:30.629Z,2.07
2018-04-30T19:35:56.828Z,2.10
2018-04-30T19:38:22.987Z,1.60
2018-04-30T19:40:49.137Z,1.80
2018-04-30T19:43:15.321Z,1.97
2018-04-30T19:45:41.473Z,2.60
2018-04-30T19:48:07.645Z,1.63
2018-04-30T19:50:34.101Z,1.57
2018-04-30T19:53:00.322Z,1.83
2018-04-30T19:55:26.596Z,2.43
2018-04-30T19:57:53.098Z,1.93
2018-04-30T20:00:19.268Z,1.43
2018-04-30T20:02:45.449Z,1.43
2018-04-30T20:05:11.646Z,1.50
2018-04-30T20:07:37.823Z,2.00
2018-04-30T20:10:03.994Z,1.60
2018-04-30T20:12:30.150Z,2.27
2018-04-30T20:14:56.328Z,1.53
2018-04-30T20:17:22.509Z,1.53
2018-04-30T20:19:48.657Z,1.63
2018-04-30T20:22:14.834Z,3.37
2018-04-30T20:24:40.976Z,1.57
2018-04-30T20:27:07.421Z,1.43
2018-04-30T20:29:33.574Z,1.50
2018-04-30T20:31:59.761Z,1.97
2018-04-30T20:34:25.931Z,3.73
2018-04-30T20:36:52.126Z,2.80
2018-04-30T20:39:18.301Z,1.77
2018-04-30T20:41:44.506Z,1.47
2018-04-30T20:44:10.920Z,3.10
2018-04-30T20:46:37.095Z,1.63
2018-04-30T20:49:03.277Z,2.03
2018-04-30T20:51:29.425Z,1.60
2018-04-30T20:53:55.606Z,1.87
2018-04-30T20:56:21.763Z,1.80
2018-04-30T20:58:48.592Z,1.60
2018-04-30T21:01:14.748Z,1.63
2018-04-30T21:03:40.897Z,2.00
2018-04-30T21:06:07.113Z,1.50
2018-04-30T21:08:45.489Z,1.63
2018-04-30T21:11:11.661Z,1.30
2018-04-30T21:13:37.841Z,1.93
2018-04-30T21:16:04.060Z,1.80
2018-04-30T21:18:30.212Z,1.40
2018-04-30T21:20:56.381Z,2.40
2018-04-30T21:23:22.532Z,1.73
2018-04-30T21:25:48.702Z,1.50
2018-04-30T21:28:14.874Z,1.50
2018-04-30T21:30:41.040Z,1.63
2018-04-30T21:33:07.274Z,1.40
2018-04-30T21:35:33.688Z,1.70
2018-04-30T21:37:59.834Z,1.50
2018-04-30T21:40:26.010Z,1.30
2018-04-30T21:42:52.479Z,1.73
2018-04-30T21:45:18.654Z,1.60
2018-04-30T21:47:44.809Z,1.50
2018-04-30T21:50:11.080Z,2.20
2018-04-30T21:52:37.217Z,1.23
2018-04-30T21:55:03.617Z,1.40
2018-04-30T21:57:29.833Z,1.53
2018-04-30T21:59:55.976Z,1.40
2018-04-30T22:02:22.409Z,4.60
2018-04-30T22:04:48.842Z,1.47
2018-04-30T22:07:14.986Z,1.80
2018-04-30T22:09:41.130Z,1.50
2018-04-30T22:12:07.342Z,1.73
2018-04-30T22:14:33.749Z,1.80
2018-04-30T22:17:00.189Z,1.40
2018-04-30T22:19:26.617Z,1.40
2018-04-30T22:21:52.769Z,1.20
2018-04-30T22:24:18.952Z,1.60
2018-04-30T22:26:45.089Z,1.50
2018-04-30T22:29:11.653Z,1.40
2018-04-30T22:31:38.066Z,1.60
2018-04-30T22:34:04.238Z,2.67
2018-04-30T22:36:30.724Z,1.60
2018-04-30T22:38:57.162Z,1.63
2018-04-30T22:41:23.594Z,1.53
2018-04-30T22:43:49.757Z,1.43
2018-04-30T22:46:15.929Z,1.40
2018-04-30T22:48:42.382Z,2.27
2018-04-30T22:51:08.530Z,1.80
2018-04-30T22:53:34.738Z,2.33
2018-04-30T22:56:00.884Z,1.30
2018-04-30T22:58:27.288Z,1.70
2018-04-30T23:00:53.484Z,1.40
2018-04-30T23:03:19.634Z,1.30
2018-04-30T23:05:45.768Z,1.30
2018-04-30T23:08:12.308Z,1.47
2018-04-30T23:10:38.456Z,1.40
2018-04-30T23:13:04.598Z,1.27
2018-04-30T23:15:30.769Z,1.67
2018-04-30T23:17:56.907Z,1.83
2018-04-30T23:20:23.407Z,1.40
2018-04-30T23:22:49.552Z,1.47
2018-04-30T23:25:15.693Z,1.30
2018-04-30T23:27:41.996Z,1.27
2018-04-30T23:30:08.140Z,1.47
2018-04-30T23:32:34.285Z,1.33
2018-04-30T23:35:00.466Z,1.37
2018-04-30T23:37:26.593Z,2.03
2018-04-30T23:39:53.217Z,1.50
2018-04-30T23:42:19.610Z,1.20
2018-04-30T23:44:45.997Z,1.43
2018-04-30T23:47:12.176Z,1.73
2018-04-30T23:49:38.330Z,2.10
2018-04-30T23:52:04.501Z,1.40
2018-04-30T23:54:30.648Z,3.83
2018-04-30T23:56:56.812Z,1.83
2018-04-30T23:59:22.984Z,1.30
